EDW256 LSZH-LEMH
Flight info
| Callsign | EDW256 |
|---|---|
| Flight time | 1h 22m |
| Altitude | 37000 |
| Route | VEBIT T50 ROTOS Z669 ULMES DCT VADAR DCT GEVEA DCT INCUS DCT BALSI DCT RETNO DCT TUPOX DCT MTG DCT DIVKO DCT VATIR DCT PIVUS DCT BODEQ DCT VERSO DCT TOSNU L16 SARGO |
| Aircraft | A320/M-SDE3FGHIRWY/LB1 |
Departure
| Time | 2026-04-26 12:19 |
|---|---|
| Airport | Zürich Airport (LSZH) |
Arrival
| Time | 2026-04-26 13:41 |
|---|---|
| Airport | Menorca Airport (LEMH) |
| Time | Latitude | Longitude | Altitude | Speed | Heading |
|---|---|---|---|---|---|
| 2026-04-26 11:40 | 47.46182 | 8.55396 | 1397 ft | 0 kts | 186° |
| 2026-04-26 12:04 | 47.46197 | 8.55398 | 1406 ft | 4 kts | 186° |
| 2026-04-26 12:04 | 47.46221 | 8.55402 | 1401 ft | 3 kts | 185° |
| 2026-04-26 12:05 | 47.46237 | 8.55402 | 1398 ft | 4 kts | 164° |
| 2026-04-26 12:05 | 47.46262 | 8.55372 | 1403 ft | 4 kts | 109° |
| 2026-04-26 12:05 | 47.46266 | 8.55347 | 1399 ft | 0 kts | 96° |
| 2026-04-26 12:10 | 47.46266 | 8.55350 | 1399 ft | 2 kts | 96° |
| 2026-04-26 12:10 | 47.46258 | 8.55454 | 1400 ft | 13 kts | 96° |
| 2026-04-26 12:11 | 47.46248 | 8.55591 | 1401 ft | 14 kts | 96° |
| 2026-04-26 12:11 | 47.46238 | 8.55734 | 1398 ft | 15 kts | 96° |
| 2026-04-26 12:11 | 47.46227 | 8.55891 | 1398 ft | 16 kts | 96° |
| 2026-04-26 12:11 | 47.46180 | 8.56034 | 1409 ft | 15 kts | 137° |
| 2026-04-26 12:12 | 47.46125 | 8.56109 | 1404 ft | 8 kts | 137° |
| 2026-04-26 12:12 | 47.46075 | 8.56178 | 1406 ft | 13 kts | 137° |
| 2026-04-26 12:12 | 47.46010 | 8.56266 | 1406 ft | 12 kts | 137° |
| 2026-04-26 12:12 | 47.45968 | 8.56322 | 1411 ft | 12 kts | 137° |
| 2026-04-26 12:13 | 47.45886 | 8.56433 | 1407 ft | 11 kts | 137° |
| 2026-04-26 12:13 | 47.45826 | 8.56512 | 1404 ft | 12 kts | 138° |
| 2026-04-26 12:13 | 47.45793 | 8.56632 | 1403 ft | 15 kts | 95° |
| 2026-04-26 12:13 | 47.45782 | 8.56802 | 1396 ft | 18 kts | 95° |
| 2026-04-26 12:14 | 47.45773 | 8.56952 | 1396 ft | 4 kts | 96° |
| 2026-04-26 12:14 | 47.45772 | 8.56953 | 1396 ft | 0 kts | 96° |
| 2026-04-26 12:16 | 47.45770 | 8.56976 | 1396 ft | 10 kts | 101° |
| 2026-04-26 12:16 | 47.45710 | 8.57042 | 1397 ft | 11 kts | 178° |
| 2026-04-26 12:17 | 47.45662 | 8.56993 | 1398 ft | 7 kts | 251° |
| 2026-04-26 12:17 | 47.45668 | 8.56918 | 1399 ft | 2 kts | 275° |
| 2026-04-26 12:18 | 47.45675 | 8.56806 | 1405 ft | 38 kts | 276° |
| 2026-04-26 12:18 | 47.45734 | 8.55966 | 1410 ft | 123 kts | 276° |
| 2026-04-26 12:18 | 47.45806 | 8.54985 | 1408 ft | 166 kts | 278° |
| 2026-04-26 12:19 | 47.45948 | 8.53176 | 2026 ft | 178 kts | 278° |
| 2026-04-26 12:19 | 47.46082 | 8.51348 | 2973 ft | 183 kts | 281° |
| 2026-04-26 12:19 | 47.46223 | 8.49369 | 3524 ft | 202 kts | 279° |
| 2026-04-26 12:19 | 47.46022 | 8.47269 | 3826 ft | 227 kts | 243° |
| 2026-04-26 12:20 | 47.44925 | 8.45414 | 4109 ft | 253 kts | 222° |
| 2026-04-26 12:20 | 47.43577 | 8.43574 | 4654 ft | 272 kts | 223° |
| 2026-04-26 12:20 | 47.42258 | 8.41509 | 4965 ft | 278 kts | 230° |
| 2026-04-26 12:20 | 47.41068 | 8.39246 | 5016 ft | 278 kts | 233° |
| 2026-04-26 12:21 | 47.39939 | 8.36917 | 5021 ft | 280 kts | 234° |
| 2026-04-26 12:21 | 47.38826 | 8.34551 | 5082 ft | 284 kts | 238° |
| 2026-04-26 12:21 | 47.37997 | 8.31866 | 5947 ft | 285 kts | 248° |
| 2026-04-26 12:21 | 47.37168 | 8.29221 | 7018 ft | 284 kts | 243° |
| 2026-04-26 12:22 | 47.36256 | 8.26629 | 7960 ft | 285 kts | 241° |
| 2026-04-26 12:22 | 47.35307 | 8.24043 | 8877 ft | 287 kts | 241° |
| 2026-04-26 12:22 | 47.34345 | 8.21439 | 9755 ft | 290 kts | 241° |
| 2026-04-26 12:22 | 47.33377 | 8.18800 | 10500 ft | 297 kts | 242° |
| 2026-04-26 12:23 | 47.32364 | 8.16013 | 10756 ft | 320 kts | 242° |
| 2026-04-26 12:23 | 47.31289 | 8.13030 | 11146 ft | 337 kts | 243° |
| 2026-04-26 12:23 | 47.30184 | 8.09941 | 11832 ft | 342 kts | 243° |
| 2026-04-26 12:23 | 47.29075 | 8.06823 | 12610 ft | 345 kts | 243° |
| 2026-04-26 12:24 | 47.27951 | 8.03668 | 13371 ft | 348 kts | 244° |
| 2026-04-26 12:24 | 47.26838 | 8.00485 | 14080 ft | 351 kts | 247° |
| 2026-04-26 12:24 | 47.25903 | 7.97160 | 14754 ft | 352 kts | 249° |
| 2026-04-26 12:25 | 47.24036 | 7.90445 | 16136 ft | 356 kts | 249° |
| 2026-04-26 12:25 | 47.23079 | 7.87025 | 16802 ft | 360 kts | 249° |
| 2026-04-26 12:25 | 47.22118 | 7.83608 | 17447 ft | 362 kts | 249° |
| 2026-04-26 12:25 | 47.21148 | 7.80176 | 18080 ft | 365 kts | 249° |
| 2026-04-26 12:26 | 47.20166 | 7.76705 | 18654 ft | 368 kts | 249° |
| 2026-04-26 12:26 | 47.19122 | 7.73259 | 19168 ft | 372 kts | 243° |
| 2026-04-26 12:26 | 47.17679 | 7.70065 | 19698 ft | 376 kts | 233° |
| 2026-04-26 12:26 | 47.16045 | 7.67055 | 20230 ft | 378 kts | 233° |
| 2026-04-26 12:27 | 47.14398 | 7.64007 | 20754 ft | 381 kts | 233° |
| 2026-04-26 12:27 | 47.12750 | 7.60947 | 21257 ft | 384 kts | 233° |
| 2026-04-26 12:27 | 47.11080 | 7.57854 | 21778 ft | 386 kts | 233° |
| 2026-04-26 12:27 | 47.09402 | 7.54754 | 22307 ft | 388 kts | 233° |
| 2026-04-26 12:28 | 47.07715 | 7.51639 | 22789 ft | 391 kts | 233° |
| 2026-04-26 12:28 | 47.06015 | 7.48507 | 23268 ft | 394 kts | 233° |
| 2026-04-26 12:28 | 47.04301 | 7.45358 | 23758 ft | 396 kts | 233° |
| 2026-04-26 12:28 | 47.02583 | 7.42200 | 24149 ft | 398 kts | 233° |
| 2026-04-26 12:29 | 47.00843 | 7.39006 | 24537 ft | 401 kts | 233° |
| 2026-04-26 12:29 | 46.99097 | 7.35818 | 24920 ft | 403 kts | 233° |
| 2026-04-26 12:29 | 46.95575 | 7.29392 | 25686 ft | 407 kts | 232° |
| 2026-04-26 12:30 | 46.93801 | 7.26155 | 26042 ft | 409 kts | 233° |
| 2026-04-26 12:30 | 46.92024 | 7.22907 | 26423 ft | 410 kts | 233° |
| 2026-04-26 12:30 | 46.90232 | 7.19637 | 26807 ft | 412 kts | 232° |
| 2026-04-26 12:31 | 46.86626 | 7.13072 | 27552 ft | 416 kts | 232° |
| 2026-04-26 12:31 | 46.84809 | 7.09777 | 27920 ft | 418 kts | 232° |
| 2026-04-26 12:31 | 46.82972 | 7.06453 | 28289 ft | 420 kts | 232° |
| 2026-04-26 12:31 | 46.81140 | 7.03135 | 28656 ft | 422 kts | 232° |
| 2026-04-26 12:32 | 46.79298 | 6.99798 | 29013 ft | 423 kts | 232° |
| 2026-04-26 12:32 | 46.77442 | 6.96443 | 29337 ft | 425 kts | 232° |
| 2026-04-26 12:32 | 46.73711 | 6.89709 | 29946 ft | 430 kts | 232° |
| 2026-04-26 12:33 | 46.71822 | 6.86307 | 30193 ft | 433 kts | 232° |
| 2026-04-26 12:33 | 46.69923 | 6.82898 | 30453 ft | 435 kts | 232° |
| 2026-04-26 12:33 | 46.68012 | 6.79477 | 30708 ft | 436 kts | 232° |
| 2026-04-26 12:33 | 46.66096 | 6.76045 | 30966 ft | 437 kts | 232° |
| 2026-04-26 12:34 | 46.64122 | 6.72658 | 31213 ft | 439 kts | 230° |
| 2026-04-26 12:34 | 46.62067 | 6.69366 | 31559 ft | 438 kts | 228° |
| 2026-04-26 12:34 | 46.59972 | 6.66155 | 31930 ft | 437 kts | 227° |
| 2026-04-26 12:34 | 46.57868 | 6.62988 | 32307 ft | 436 kts | 227° |
| 2026-04-26 12:35 | 46.55744 | 6.59794 | 32678 ft | 434 kts | 227° |
| 2026-04-26 12:35 | 46.53681 | 6.56664 | 33042 ft | 433 kts | 228° |
| 2026-04-26 12:35 | 46.51606 | 6.53481 | 33404 ft | 432 kts | 228° |
| 2026-04-26 12:35 | 46.49531 | 6.50274 | 33764 ft | 430 kts | 228° |
| 2026-04-26 12:36 | 46.47503 | 6.47132 | 34106 ft | 429 kts | 228° |
| 2026-04-26 12:36 | 46.45453 | 6.43962 | 34410 ft | 429 kts | 229° |
| 2026-04-26 12:36 | 46.43459 | 6.40881 | 34569 ft | 432 kts | 228° |
| 2026-04-26 12:36 | 46.41349 | 6.37627 | 34740 ft | 434 kts | 228° |
| 2026-04-26 12:37 | 46.39277 | 6.34440 | 34968 ft | 434 kts | 228° |
| 2026-04-26 12:37 | 46.37196 | 6.31251 | 35258 ft | 433 kts | 228° |
| 2026-04-26 12:37 | 46.35128 | 6.28086 | 35519 ft | 432 kts | 228° |
| 2026-04-26 12:37 | 46.33054 | 6.24914 | 35770 ft | 432 kts | 228° |
| 2026-04-26 12:38 | 46.30994 | 6.21767 | 35998 ft | 432 kts | 228° |
| 2026-04-26 12:38 | 46.28909 | 6.18624 | 36224 ft | 432 kts | 225° |
| 2026-04-26 12:38 | 46.26570 | 6.15884 | 36435 ft | 434 kts | 215° |
| 2026-04-26 12:38 | 46.23920 | 6.13757 | 36657 ft | 437 kts | 205° |
| 2026-04-26 12:39 | 46.21044 | 6.12333 | 36836 ft | 440 kts | 195° |
| 2026-04-26 12:39 | 46.18026 | 6.11566 | 37025 ft | 441 kts | 191° |
| 2026-04-26 12:39 | 46.14974 | 6.10902 | 37148 ft | 442 kts | 191° |
| 2026-04-26 12:40 | 46.08893 | 6.09557 | 37169 ft | 441 kts | 191° |
| 2026-04-26 12:40 | 46.02833 | 6.08207 | 37165 ft | 441 kts | 191° |
| 2026-04-26 12:41 | 45.96762 | 6.06862 | 37171 ft | 440 kts | 191° |
| 2026-04-26 12:41 | 45.90701 | 6.05528 | 37168 ft | 439 kts | 191° |
| 2026-04-26 12:42 | 45.84662 | 6.04190 | 37163 ft | 439 kts | 191° |
| 2026-04-26 12:42 | 45.78609 | 6.02852 | 37154 ft | 439 kts | 191° |
| 2026-04-26 12:43 | 45.72562 | 6.01532 | 37159 ft | 439 kts | 191° |
| 2026-04-26 12:43 | 45.66505 | 6.00216 | 37146 ft | 439 kts | 191° |
| 2026-04-26 12:44 | 45.60462 | 5.98898 | 37130 ft | 439 kts | 191° |
| 2026-04-26 12:44 | 45.54420 | 5.97565 | 37141 ft | 439 kts | 191° |
| 2026-04-26 12:45 | 45.48373 | 5.96234 | 37143 ft | 439 kts | 191° |
| 2026-04-26 12:45 | 45.42382 | 5.94628 | 37118 ft | 437 kts | 195° |
| 2026-04-26 12:46 | 45.36453 | 5.92652 | 37142 ft | 438 kts | 196° |
| 2026-04-26 12:46 | 45.30498 | 5.90663 | 37147 ft | 438 kts | 195° |
| 2026-04-26 12:47 | 45.25545 | 5.89099 | 37154 ft | 438 kts | 194° |
| 2026-04-26 12:47 | 45.19575 | 5.87276 | 37146 ft | 438 kts | 194° |
| 2026-04-26 12:48 | 45.13600 | 5.85441 | 37146 ft | 438 kts | 194° |
| 2026-04-26 12:48 | 45.07650 | 5.83596 | 37142 ft | 438 kts | 194° |
| 2026-04-26 12:49 | 45.01688 | 5.81753 | 37134 ft | 438 kts | 194° |
| 2026-04-26 12:49 | 44.95726 | 5.79928 | 37140 ft | 438 kts | 194° |
| 2026-04-26 12:50 | 44.89779 | 5.78102 | 37137 ft | 437 kts | 195° |
| 2026-04-26 12:50 | 44.83834 | 5.76276 | 37130 ft | 437 kts | 195° |
| 2026-04-26 12:51 | 44.77875 | 5.74449 | 37138 ft | 437 kts | 195° |
| 2026-04-26 12:51 | 44.71939 | 5.72626 | 37136 ft | 436 kts | 195° |
| 2026-04-26 12:52 | 44.66013 | 5.70823 | 37129 ft | 436 kts | 194° |
| 2026-04-26 12:52 | 44.60079 | 5.69024 | 37114 ft | 436 kts | 194° |
| 2026-04-26 12:53 | 44.54142 | 5.67223 | 37111 ft | 437 kts | 194° |
| 2026-04-26 12:53 | 44.48219 | 5.65426 | 37110 ft | 437 kts | 194° |
| 2026-04-26 12:54 | 44.42209 | 5.63612 | 37108 ft | 437 kts | 194° |
| 2026-04-26 12:54 | 44.36350 | 5.61446 | 37112 ft | 434 kts | 204° |
| 2026-04-26 12:55 | 44.30730 | 5.58337 | 37123 ft | 434 kts | 204° |
| 2026-04-26 12:55 | 44.25104 | 5.55257 | 37117 ft | 434 kts | 204° |
| 2026-04-26 12:56 | 44.19469 | 5.52186 | 37124 ft | 434 kts | 204° |
| 2026-04-26 12:56 | 44.13836 | 5.49126 | 37124 ft | 434 kts | 204° |
| 2026-04-26 12:57 | 44.08194 | 5.46058 | 37117 ft | 434 kts | 204° |
| 2026-04-26 12:57 | 44.02608 | 5.43023 | 37123 ft | 434 kts | 204° |
| 2026-04-26 12:58 | 43.94154 | 5.38442 | 37136 ft | 434 kts | 204° |
| 2026-04-26 12:58 | 43.88519 | 5.35391 | 37114 ft | 435 kts | 204° |
| 2026-04-26 12:59 | 43.82879 | 5.32348 | 37133 ft | 435 kts | 204° |
| 2026-04-26 12:59 | 43.77243 | 5.29318 | 37125 ft | 435 kts | 204° |
| 2026-04-26 13:00 | 43.71572 | 5.26270 | 37126 ft | 435 kts | 204° |
| 2026-04-26 13:00 | 43.65918 | 5.23239 | 37109 ft | 435 kts | 204° |
| 2026-04-26 13:01 | 43.60278 | 5.20220 | 37135 ft | 435 kts | 204° |
| 2026-04-26 13:01 | 43.54631 | 5.17199 | 37151 ft | 435 kts | 204° |
| 2026-04-26 13:02 | 43.48988 | 5.14195 | 37154 ft | 434 kts | 204° |
| 2026-04-26 13:02 | 43.43353 | 5.11190 | 37154 ft | 434 kts | 204° |
| 2026-04-26 13:03 | 43.37828 | 5.07864 | 37154 ft | 431 kts | 213° |
| 2026-04-26 13:03 | 43.32877 | 5.03265 | 37155 ft | 429 kts | 217° |
| 2026-04-26 13:04 | 43.27952 | 4.98622 | 37152 ft | 430 kts | 216° |
| 2026-04-26 13:04 | 43.23021 | 4.93986 | 37131 ft | 430 kts | 216° |
| 2026-04-26 13:05 | 43.18084 | 4.89350 | 37153 ft | 430 kts | 216° |
| 2026-04-26 13:05 | 43.13151 | 4.84721 | 37155 ft | 430 kts | 216° |
| 2026-04-26 13:06 | 43.08209 | 4.80102 | 37144 ft | 429 kts | 216° |
| 2026-04-26 13:06 | 43.03129 | 4.75794 | 37128 ft | 431 kts | 211° |
| 2026-04-26 13:07 | 42.97886 | 4.71816 | 37128 ft | 431 kts | 211° |
| 2026-04-26 13:07 | 42.92675 | 4.67871 | 37145 ft | 431 kts | 211° |
| 2026-04-26 13:08 | 42.87401 | 4.63884 | 37142 ft | 431 kts | 211° |
| 2026-04-26 13:08 | 42.82157 | 4.59922 | 37141 ft | 431 kts | 211° |
| 2026-04-26 13:09 | 42.76898 | 4.55960 | 37138 ft | 431 kts | 211° |
| 2026-04-26 13:09 | 42.71639 | 4.52010 | 37141 ft | 431 kts | 211° |
| 2026-04-26 13:10 | 42.66405 | 4.48091 | 37140 ft | 432 kts | 211° |
| 2026-04-26 13:10 | 42.61108 | 4.44131 | 37142 ft | 432 kts | 211° |
| 2026-04-26 13:11 | 42.55843 | 4.40182 | 37146 ft | 432 kts | 211° |
| 2026-04-26 13:11 | 42.50563 | 4.36256 | 37139 ft | 432 kts | 211° |
| 2026-04-26 13:12 | 42.45293 | 4.32351 | 37141 ft | 432 kts | 211° |
| 2026-04-26 13:12 | 42.40022 | 4.28431 | 37142 ft | 432 kts | 211° |
| 2026-04-26 13:13 | 42.34754 | 4.24520 | 37147 ft | 432 kts | 211° |
| 2026-04-26 13:13 | 42.29479 | 4.20614 | 37146 ft | 432 kts | 211° |
| 2026-04-26 13:14 | 42.24200 | 4.16711 | 37140 ft | 433 kts | 210° |
| 2026-04-26 13:14 | 42.18897 | 4.12812 | 37147 ft | 434 kts | 210° |
| 2026-04-26 13:15 | 42.13604 | 4.08919 | 37149 ft | 434 kts | 210° |
| 2026-04-26 13:15 | 42.09161 | 4.05656 | 37154 ft | 434 kts | 210° |
| 2026-04-26 13:16 | 42.03856 | 4.01758 | 37161 ft | 435 kts | 210° |
| 2026-04-26 13:16 | 41.98557 | 3.97877 | 37165 ft | 435 kts | 210° |
| 2026-04-26 13:17 | 41.90297 | 3.92902 | 37164 ft | 438 kts | 194° |
| 2026-04-26 13:18 | 41.81272 | 3.90794 | 37165 ft | 438 kts | 191° |
| 2026-04-26 13:19 | 41.72245 | 3.88708 | 37168 ft | 438 kts | 191° |
| 2026-04-26 13:19 | 41.69219 | 3.88011 | 36636 ft | 443 kts | 191° |
| 2026-04-26 13:19 | 41.66161 | 3.87306 | 35550 ft | 452 kts | 191° |
| 2026-04-26 13:19 | 41.63039 | 3.86588 | 34630 ft | 457 kts | 191° |
| 2026-04-26 13:20 | 41.59897 | 3.85867 | 33754 ft | 459 kts | 191° |
| 2026-04-26 13:20 | 41.56749 | 3.85145 | 32990 ft | 458 kts | 191° |
| 2026-04-26 13:20 | 41.53605 | 3.84422 | 32171 ft | 458 kts | 191° |
| 2026-04-26 13:20 | 41.50482 | 3.83708 | 31594 ft | 452 kts | 191° |
| 2026-04-26 13:21 | 41.47402 | 3.83005 | 30995 ft | 448 kts | 191° |
| 2026-04-26 13:21 | 41.44335 | 3.82305 | 30405 ft | 443 kts | 191° |
| 2026-04-26 13:21 | 41.41316 | 3.81616 | 29779 ft | 439 kts | 191° |
| 2026-04-26 13:21 | 41.38312 | 3.80929 | 29212 ft | 433 kts | 191° |
| 2026-04-26 13:22 | 41.35362 | 3.80253 | 28657 ft | 428 kts | 191° |
| 2026-04-26 13:22 | 41.32442 | 3.79582 | 28106 ft | 423 kts | 191° |
| 2026-04-26 13:22 | 41.29557 | 3.78921 | 27566 ft | 419 kts | 191° |
| 2026-04-26 13:22 | 41.26701 | 3.78271 | 27054 ft | 414 kts | 190° |
| 2026-04-26 13:23 | 41.23873 | 3.77631 | 26529 ft | 409 kts | 190° |
| 2026-04-26 13:23 | 41.21084 | 3.77001 | 26040 ft | 405 kts | 190° |
| 2026-04-26 13:23 | 41.18316 | 3.76382 | 25556 ft | 400 kts | 188° |
| 2026-04-26 13:23 | 41.15553 | 3.76179 | 25082 ft | 397 kts | 178° |
| 2026-04-26 13:24 | 41.12816 | 3.76617 | 24613 ft | 394 kts | 168° |
| 2026-04-26 13:24 | 41.10175 | 3.77551 | 24134 ft | 391 kts | 165° |
| 2026-04-26 13:24 | 41.07568 | 3.78511 | 23663 ft | 388 kts | 165° |
| 2026-04-26 13:24 | 41.04976 | 3.79450 | 23148 ft | 384 kts | 165° |
| 2026-04-26 13:25 | 41.02414 | 3.80370 | 22686 ft | 380 kts | 165° |
| 2026-04-26 13:25 | 40.99874 | 3.81281 | 22218 ft | 376 kts | 165° |
| 2026-04-26 13:25 | 40.97356 | 3.82187 | 21751 ft | 373 kts | 165° |
| 2026-04-26 13:25 | 40.94858 | 3.83089 | 21286 ft | 370 kts | 165° |
| 2026-04-26 13:26 | 40.92375 | 3.83985 | 20813 ft | 368 kts | 165° |
| 2026-04-26 13:26 | 40.89914 | 3.84877 | 20346 ft | 366 kts | 165° |
| 2026-04-26 13:26 | 40.87466 | 3.85766 | 19869 ft | 365 kts | 165° |
| 2026-04-26 13:26 | 40.84982 | 3.86663 | 19403 ft | 363 kts | 165° |
| 2026-04-26 13:27 | 40.82540 | 3.87539 | 18928 ft | 363 kts | 165° |
| 2026-04-26 13:27 | 40.80111 | 3.88407 | 18462 ft | 362 kts | 165° |
| 2026-04-26 13:27 | 40.77682 | 3.89274 | 17957 ft | 360 kts | 165° |
| 2026-04-26 13:27 | 40.75269 | 3.90140 | 17500 ft | 358 kts | 164° |
| 2026-04-26 13:28 | 40.72872 | 3.91003 | 17051 ft | 355 kts | 164° |
| 2026-04-26 13:28 | 40.70496 | 3.91861 | 16612 ft | 353 kts | 164° |
| 2026-04-26 13:28 | 40.68155 | 3.92701 | 16171 ft | 351 kts | 164° |
| 2026-04-26 13:28 | 40.65773 | 3.93554 | 15729 ft | 350 kts | 164° |
| 2026-04-26 13:29 | 40.63426 | 3.94394 | 15287 ft | 348 kts | 164° |
| 2026-04-26 13:29 | 40.61882 | 3.94945 | 15007 ft | 348 kts | 164° |
| 2026-04-26 13:29 | 40.58757 | 3.96059 | 14425 ft | 346 kts | 164° |
| 2026-04-26 13:29 | 40.56432 | 3.96892 | 13984 ft | 346 kts | 163° |
| 2026-04-26 13:30 | 40.54132 | 3.97714 | 13512 ft | 345 kts | 163° |
| 2026-04-26 13:30 | 40.51820 | 3.98539 | 13063 ft | 343 kts | 164° |
| 2026-04-26 13:30 | 40.49544 | 3.99425 | 12606 ft | 340 kts | 158° |
| 2026-04-26 13:30 | 40.47356 | 4.00570 | 12173 ft | 337 kts | 157° |
| 2026-04-26 13:31 | 40.45179 | 4.01713 | 11727 ft | 336 kts | 157° |
| 2026-04-26 13:31 | 40.43018 | 4.02846 | 11275 ft | 334 kts | 157° |
| 2026-04-26 13:31 | 40.40864 | 4.03972 | 10826 ft | 333 kts | 157° |
| 2026-04-26 13:31 | 40.38718 | 4.05093 | 10427 ft | 330 kts | 157° |
| 2026-04-26 13:32 | 40.36631 | 4.06185 | 10292 ft | 317 kts | 157° |
| 2026-04-26 13:32 | 40.34618 | 4.07240 | 10180 ft | 306 kts | 157° |
| 2026-04-26 13:32 | 40.32670 | 4.08260 | 10005 ft | 297 kts | 157° |
| 2026-04-26 13:32 | 40.30759 | 4.09258 | 9634 ft | 295 kts | 157° |
| 2026-04-26 13:33 | 40.28855 | 4.10253 | 9244 ft | 293 kts | 157° |
| 2026-04-26 13:33 | 40.26966 | 4.11243 | 8862 ft | 291 kts | 157° |
| 2026-04-26 13:33 | 40.25086 | 4.12227 | 8493 ft | 290 kts | 157° |
| 2026-04-26 13:33 | 40.23196 | 4.13215 | 8108 ft | 288 kts | 156° |
| 2026-04-26 13:34 | 40.21345 | 4.14183 | 7732 ft | 286 kts | 156° |
| 2026-04-26 13:34 | 40.19507 | 4.15141 | 7356 ft | 284 kts | 156° |
| 2026-04-26 13:34 | 40.17697 | 4.16084 | 6981 ft | 282 kts | 156° |
| 2026-04-26 13:34 | 40.16471 | 4.16722 | 6724 ft | 281 kts | 156° |
| 2026-04-26 13:35 | 40.14056 | 4.17979 | 6209 ft | 278 kts | 156° |
| 2026-04-26 13:35 | 40.12287 | 4.18901 | 5812 ft | 276 kts | 156° |
| 2026-04-26 13:35 | 40.10473 | 4.19847 | 5168 ft | 281 kts | 157° |
| 2026-04-26 13:35 | 40.08656 | 4.20793 | 4416 ft | 280 kts | 157° |
| 2026-04-26 13:36 | 40.06875 | 4.21718 | 3699 ft | 277 kts | 158° |
| 2026-04-26 13:36 | 40.05129 | 4.22622 | 3372 ft | 259 kts | 158° |
| 2026-04-26 13:36 | 40.03523 | 4.23454 | 3226 ft | 237 kts | 158° |
| 2026-04-26 13:36 | 40.02057 | 4.24213 | 3248 ft | 215 kts | 158° |
| 2026-04-26 13:37 | 40.00683 | 4.24703 | 3122 ft | 200 kts | 175° |
| 2026-04-26 13:37 | 39.99308 | 4.24567 | 2770 ft | 195 kts | 189° |
| 2026-04-26 13:37 | 39.98001 | 4.24290 | 2479 ft | 184 kts | 189° |
| 2026-04-26 13:37 | 39.96798 | 4.24039 | 2225 ft | 166 kts | 189° |
| 2026-04-26 13:38 | 39.95702 | 4.23812 | 2002 ft | 153 kts | 189° |
| 2026-04-26 13:38 | 39.94684 | 4.23602 | 1798 ft | 144 kts | 188° |
| 2026-04-26 13:38 | 39.93717 | 4.23402 | 1606 ft | 140 kts | 188° |
| 2026-04-26 13:38 | 39.92758 | 4.23204 | 1415 ft | 136 kts | 188° |
| 2026-04-26 13:39 | 39.91794 | 4.23005 | 1228 ft | 134 kts | 188° |
| 2026-04-26 13:39 | 39.90854 | 4.22812 | 1054 ft | 137 kts | 188° |
| 2026-04-26 13:39 | 39.89905 | 4.22617 | 872 ft | 139 kts | 187° |
| 2026-04-26 13:39 | 39.88978 | 4.22426 | 693 ft | 139 kts | 186° |
| 2026-04-26 13:40 | 39.87997 | 4.22225 | 522 ft | 138 kts | 186° |
| 2026-04-26 13:40 | 39.87041 | 4.22020 | 335 ft | 138 kts | 185° |
| 2026-04-26 13:40 | 39.86195 | 4.21855 | 304 ft | 101 kts | 189° |
| 2026-04-26 13:40 | 39.85667 | 4.21751 | 294 ft | 52 kts | 180° |
| 2026-04-26 13:41 | 39.85436 | 4.21835 | 283 ft | 13 kts | 160° |
| 2026-04-26 13:41 | 39.85415 | 4.21915 | 283 ft | 11 kts | 54° |
| 2026-04-26 13:41 | 39.85480 | 4.21943 | 284 ft | 9 kts | 9° |
| 2026-04-26 13:41 | 39.85551 | 4.21957 | 286 ft | 20 kts | 9° |
| 2026-04-26 13:42 | 39.85708 | 4.21990 | 291 ft | 23 kts | 9° |
| 2026-04-26 13:42 | 39.85844 | 4.22018 | 295 ft | 12 kts | 9° |
| 2026-04-26 13:42 | 39.85892 | 4.22027 | 296 ft | 9 kts | 9° |
| 2026-04-26 13:42 | 39.85951 | 4.22039 | 296 ft | 8 kts | 9° |
| 2026-04-26 13:43 | 39.86027 | 4.22055 | 296 ft | 20 kts | 9° |
| 2026-04-26 13:43 | 39.86176 | 4.22086 | 299 ft | 23 kts | 9° |
| 2026-04-26 13:43 | 39.86341 | 4.22120 | 294 ft | 25 kts | 8° |
| 2026-04-26 13:43 | 39.86473 | 4.22147 | 294 ft | 17 kts | 9° |
| 2026-04-26 13:44 | 39.86538 | 4.22171 | 297 ft | 7 kts | 41° |
| 2026-04-26 13:44 | 39.86542 | 4.22235 | 296 ft | 10 kts | 100° |
| 2026-04-26 13:44 | 39.86505 | 4.22326 | 288 ft | 13 kts | 175° |
| 2026-04-26 13:44 | 39.86478 | 4.22338 | 291 ft | 0 kts | 136° |
| 2026-04-26 13:45 | 39.86473 | 4.22355 | 287 ft | 3 kts | 103° |
| 2026-04-26 13:45 | 39.86471 | 4.22375 | 287 ft | 1 kts | 97° |
| 2026-04-26 13:45 | 39.86469 | 4.22393 | 286 ft | 3 kts | 98° |
| 2026-04-26 13:45 | 39.86468 | 4.22400 | 286 ft | 1 kts | 99° |